Time;durP1;ratioP1;P1;durP2;ratioP2;P2;SDS_P1;SDS_P2;PMS_P1;PMS_P2;Temp;Humidity;BMP_temperature;BMP_pressure;BME280_temperature;BME280_humidity;BME280_pressure;Samples;Min_cycle;Max_cycle;Signal;HPM_P1;HPM_P2
2021/08/16 00:02:05;;;;;;;7.47;6.88;;;;;;;;;;5093602;28;20020;-65
2021/08/16 00:04:30;;;;;;;6.47;5.97;;;;;;;;;;5093667;28;20077;-65
2021/08/16 00:06:56;;;;;;;7.78;7.05;;;;;;;;;;5093571;28;20103;-65
2021/08/16 00:09:21;;;;;;;6.72;6.13;;;;;;;;;;5093459;28;20531;-65
2021/08/16 00:11:47;;;;;;;8.77;6.15;;;;;;;;;;5093927;28;20051;-65
2021/08/16 00:14:12;;;;;;;7.65;6.60;;;;;;;;;;5093690;28;20176;-65
2021/08/16 00:16:37;;;;;;;7.88;6.45;;;;;;;;;;5074830;28;20129;-65
2021/08/16 00:19:03;;;;;;;7.50;6.57;;;;;;;;;;5075627;28;20059;-65
2021/08/16 00:21:29;;;;;;;7.00;6.40;;;;;;;;;;5075471;28;20111;-64
2021/08/16 00:23:54;;;;;;;7.03;6.32;;;;;;;;;;5075167;28;20032;-64
2021/08/16 00:26:20;;;;;;;7.05;6.35;;;;;;;;;;5093201;28;20040;-63
2021/08/16 00:28:45;;;;;;;6.55;5.93;;;;;;;;;;5075165;28;20482;-63
2021/08/16 00:31:11;;;;;;;8.02;6.38;;;;;;;;;;5093142;28;20486;-63
2021/08/16 00:33:36;;;;;;;8.18;5.75;;;;;;;;;;5075236;28;20036;-63
2021/08/16 00:36:02;;;;;;;6.18;5.68;;;;;;;;;;5075408;28;20067;-63
2021/08/16 00:38:27;;;;;;;7.80;5.55;;;;;;;;;;5093409;28;20036;-64
2021/08/16 00:40:53;;;;;;;8.80;6.35;;;;;;;;;;5093561;28;20401;-63
2021/08/16 00:43:19;;;;;;;6.93;6.25;;;;;;;;;;5074937;28;20062;-63
2021/08/16 00:45:45;;;;;;;9.18;6.32;;;;;;;;;;5093153;28;20032;-63
2021/08/16 00:48:10;;;;;;;10.07;6.78;;;;;;;;;;5093343;28;20034;-63
2021/08/16 00:50:36;;;;;;;7.95;6.43;;;;;;;;;;5093125;28;20463;-63
2021/08/16 00:53:01;;;;;;;7.10;6.40;;;;;;;;;;5093328;28;20027;-63
2021/08/16 00:55:27;;;;;;;6.80;6.15;;;;;;;;;;5058438;28;20147;-63
2021/08/16 00:57:54;;;;;;;6.95;6.32;;;;;;;;;;5058585;28;20039;-66
2021/08/16 01:00:20;;;;;;;6.40;5.72;;;;;;;;;;5092949;28;20036;-64
2021/08/16 01:02:46;;;;;;;7.60;5.97;;;;;;;;;;5093038;28;20030;-65
2021/08/16 01:05:13;;;;;;;7.05;6.35;;;;;;;;;;5077236;28;20032;-64
2021/08/16 01:07:43;;;;;;;7.20;6.55;;;;;;;;;;5096890;28;20017;-64
2021/08/16 01:10:09;;;;;;;7.68;6.50;;;;;;;;;;5096637;28;20127;-64
2021/08/16 01:12:35;;;;;;;7.50;6.15;;;;;;;;;;5096696;28;20055;-65
2021/08/16 01:15:00;;;;;;;8.05;6.38;;;;;;;;;;5096744;28;20039;-65
2021/08/16 01:17:26;;;;;;;7.13;6.50;;;;;;;;;;5096224;28;20040;-65
2021/08/16 01:19:51;;;;;;;6.93;6.32;;;;;;;;;;5096221;28;20134;-66
2021/08/16 01:22:17;;;;;;;7.85;7.07;;;;;;;;;;5096355;28;20085;-66
2021/08/16 01:24:43;;;;;;;8.27;6.65;;;;;;;;;;5096240;28;20040;-66
2021/08/16 01:27:10;;;;;;;7.38;6.38;;;;;;;;;;5096742;28;20032;-65
2021/08/16 01:29:36;;;;;;;7.38;6.70;;;;;;;;;;5096288;28;20036;-65
2021/08/16 01:32:02;;;;;;;7.55;6.75;;;;;;;;;;5096440;28;20482;-64
2021/08/16 01:34:30;;;;;;;8.35;6.85;;;;;;;;;;5096355;28;20044;-65
2021/08/16 01:36:55;;;;;;;7.70;6.88;;;;;;;;;;5096315;28;20031;-65
2021/08/16 01:39:21;;;;;;;10.70;6.85;;;;;;;;;;5096234;28;20040;-65
2021/08/16 01:41:48;;;;;;;7.63;6.82;;;;;;;;;;5095988;28;20452;-65
2021/08/16 01:44:15;;;;;;;9.13;6.95;;;;;;;;;;5096201;28;20032;-65
2021/08/16 01:46:41;;;;;;;9.10;6.50;;;;;;;;;;5096043;28;20024;-66
2021/08/16 01:49:08;;;;;;;8.75;6.63;;;;;;;;;;5096060;28;20134;-66
2021/08/16 01:51:34;;;;;;;10.27;6.68;;;;;;;;;;5095752;28;20032;-66
2021/08/16 01:53:59;;;;;;;5.78;4.90;;;;;;;;;;5095943;28;20529;-65
2021/08/16 01:56:25;;;;;;;6.90;5.70;;;;;;;;;;5095963;28;20131;-64
2021/08/16 01:58:50;;;;;;;7.57;6.53;;;;;;;;;;5095759;28;20115;-63
2021/08/16 02:01:15;;;;;;;8.45;6.07;;;;;;;;;;5096236;28;20039;-64
2021/08/16 02:03:42;;;;;;;6.90;5.65;;;;;;;;;;5095916;28;20031;-63
2021/08/16 02:06:07;;;;;;;7.13;5.97;;;;;;;;;;5095639;28;20081;-64
2021/08/16 02:08:33;;;;;;;6.93;6.10;;;;;;;;;;5095606;28;20115;-64
2021/08/16 02:10:58;;;;;;;6.93;5.57;;;;;;;;;;5095995;28;20028;-63
2021/08/16 02:13:24;;;;;;;6.18;5.63;;;;;;;;;;5095217;28;20020;-64
2021/08/16 02:15:49;;;;;;;8.18;5.53;;;;;;;;;;5094688;28;20087;-63
2021/08/16 02:18:15;;;;;;;6.05;5.32;;;;;;;;;;5095118;28;20484;-63
2021/08/16 02:20:40;;;;;;;8.35;5.75;;;;;;;;;;5077063;28;20039;-63
2021/08/16 02:23:06;;;;;;;6.70;6.10;;;;;;;;;;5076957;28;20113;-63
2021/08/16 02:25:31;;;;;;;6.20;5.60;;;;;;;;;;5077213;28;20150;-64
2021/08/16 02:27:57;;;;;;;6.57;5.97;;;;;;;;;;5077231;28;20082;-65
2021/08/16 02:30:22;;;;;;;7.97;6.05;;;;;;;;;;5095205;28;20094;-64
2021/08/16 02:32:48;;;;;;;7.90;6.63;;;;;;;;;;5095197;28;20024;-64
2021/08/16 02:35:13;;;;;;;8.15;7.35;;;;;;;;;;5076849;28;20533;-64
2021/08/16 02:37:39;;;;;;;7.22;6.45;;;;;;;;;;5094941;28;20028;-64
2021/08/16 02:40:06;;;;;;;8.52;6.90;;;;;;;;;;5094896;28;20359;-64
2021/08/16 02:42:31;;;;;;;9.82;7.50;;;;;;;;;;5094950;28;20135;-64
2021/08/16 02:44:57;;;;;;;9.65;6.97;;;;;;;;;;5094868;28;20478;-65
2021/08/16 02:47:23;;;;;;;7.50;6.80;;;;;;;;;;5076800;28;20094;-65
2021/08/16 02:49:49;;;;;;;10.45;7.20;;;;;;;;;;5076916;28;20031;-65
2021/08/16 02:52:15;;;;;;;8.40;7.60;;;;;;;;;;5094603;28;20040;-65
2021/08/16 02:54:44;;;;;;;10.13;7.43;;;;;;;;;;5094753;28;20090;-65
2021/08/16 02:57:09;;;;;;;8.82;6.80;;;;;;;;;;5076467;28;20077;-64
2021/08/16 02:59:35;;;;;;;11.70;7.03;;;;;;;;;;5094714;28;20028;-65
2021/08/16 03:02:00;;;;;;;11.52;7.60;;;;;;;;;;5094916;28;20466;-64
2021/08/16 03:04:26;;;;;;;11.07;7.70;;;;;;;;;;5094660;28;20085;-64
2021/08/16 03:06:52;;;;;;;8.77;7.50;;;;;;;;;;5094456;28;20060;-64
2021/08/16 03:09:17;;;;;;;10.82;7.68;;;;;;;;;;5094322;28;20500;-64
2021/08/16 03:11:42;;;;;;;8.38;7.50;;;;;;;;;;5094441;28;20048;-64
2021/08/16 03:14:08;;;;;;;12.55;7.63;;;;;;;;;;5094315;28;20032;-65
2021/08/16 03:16:34;;;;;;;7.53;6.82;;;;;;;;;;5093892;28;20131;-65
2021/08/16 03:18:59;;;;;;;9.43;7.25;;;;;;;;;;5094522;28;20032;-65
2021/08/16 03:21:25;;;;;;;8.18;7.38;;;;;;;;;;5076176;28;20040;-65
2021/08/16 03:23:50;;;;;;;9.23;6.85;;;;;;;;;;5094424;28;20028;-65
2021/08/16 03:26:16;;;;;;;10.15;7.75;;;;;;;;;;5075896;28;20078;-65
2021/08/16 03:28:42;;;;;;;11.35;7.88;;;;;;;;;;5094207;28;20038;-66
2021/08/16 03:31:08;;;;;;;9.55;7.82;;;;;;;;;;5093999;28;20040;-65
2021/08/16 03:33:33;;;;;;;8.57;7.63;;;;;;;;;;5093908;28;20043;-65
2021/08/16 03:35:59;;;;;;;10.75;7.93;;;;;;;;;;5093694;28;20078;-65
2021/08/16 03:38:24;;;;;;;10.38;7.90;;;;;;;;;;5094189;28;20051;-65
2021/08/16 03:40:50;;;;;;;12.30;8.20;;;;;;;;;;5094154;28;20024;-65
2021/08/16 03:43:15;;;;;;;10.07;7.70;;;;;;;;;;5093907;28;20182;-66
2021/08/16 03:45:42;;;;;;;9.77;8.10;;;;;;;;;;5093894;28;20040;-64
2021/08/16 03:48:07;;;;;;;8.48;7.32;;;;;;;;;;5093974;28;20059;-64
2021/08/16 03:50:33;;;;;;;11.18;7.63;;;;;;;;;;5093758;28;20474;-63
2021/08/16 03:52:58;;;;;;;12.48;7.70;;;;;;;;;;5093861;28;20141;-63
2021/08/16 03:55:24;;;;;;;10.32;7.30;;;;;;;;;;5093566;28;20024;-63
2021/08/16 03:57:49;;;;;;;6.82;6.15;;;;;;;;;;5093646;28;20032;-64
2021/08/16 04:00:15;;;;;;;10.35;7.55;;;;;;;;;;5075038;28;20016;-62
2021/08/16 04:02:42;;;;;;;7.75;6.75;;;;;;;;;;5093401;28;20109;-63
2021/08/16 04:05:08;;;;;;;9.90;7.20;;;;;;;;;;5094932;28;20036;-63
2021/08/16 04:07:34;;;;;;;10.98;7.72;;;;;;;;;;5104874;28;20460;-63
2021/08/16 04:09:59;;;;;;;8.10;7.03;;;;;;;;;;5102103;28;20090;-64
2021/08/16 04:12:25;;;;;;;8.10;7.03;;;;;;;;;;5103703;28;20039;-64
2021/08/16 04:14:50;;;;;;;8.07;7.28;;;;;;;;;;5101349;28;20039;-65
2021/08/16 04:17:16;;;;;;;9.90;7.13;;;;;;;;;;5100987;28;20569;-65
2021/08/16 04:19:41;;;;;;;10.90;7.63;;;;;;;;;;5093413;28;20047;-66
2021/08/16 04:22:07;;;;;;;9.75;7.25;;;;;;;;;;5093567;28;20043;-66
2021/08/16 04:24:32;;;;;;;9.50;7.07;;;;;;;;;;5075407;28;20062;-66
2021/08/16 04:26:58;;;;;;;9.43;6.68;;;;;;;;;;5093815;28;20124;-65
2021/08/16 04:29:25;;;;;;;6.93;6.32;;;;;;;;;;5093222;28;20033;-66
2021/08/16 04:31:51;;;;;;;9.40;6.82;;;;;;;;;;5093290;28;20027;-65
2021/08/16 04:34:16;;;;;;;7.70;6.90;;;;;;;;;;5093369;28;20130;-65
2021/08/16 04:36:41;;;;;;;8.20;6.75;;;;;;;;;;5093105;28;20074;-65
2021/08/16 04:39:07;;;;;;;8.85;6.55;;;;;;;;;;5075507;28;20051;-65
2021/08/16 04:41:32;;;;;;;6.78;6.05;;;;;;;;;;5097041;28;20032;-65
2021/08/16 04:43:58;;;;;;;8.73;7.13;;;;;;;;;;5097531;28;20033;-65
2021/08/16 04:46:23;;;;;;;8.45;7.47;;;;;;;;;;5097178;28;20024;-65
2021/08/16 04:48:49;;;;;;;11.52;7.68;;;;;;;;;;5097538;28;20051;-65
2021/08/16 04:51:15;;;;;;;10.60;6.47;;;;;;;;;;5097189;28;20035;-64
2021/08/16 04:53:40;;;;;;;8.70;7.30;;;;;;;;;;5097109;28;20036;-64
2021/08/16 04:56:07;;;;;;;8.07;6.80;;;;;;;;;;5078410;28;20020;-64
2021/08/16 04:58:33;;;;;;;9.35;6.88;;;;;;;;;;5096855;28;20398;-67
2021/08/16 05:01:00;;;;;;;8.85;7.30;;;;;;;;;;5097018;28;20017;-67
2021/08/16 05:03:26;;;;;;;8.20;7.30;;;;;;;;;;5096982;28;20043;-67
2021/08/16 05:05:53;;;;;;;8.57;7.28;;;;;;;;;;5096849;28;20024;-67
2021/08/16 05:08:19;;;;;;;9.25;7.07;;;;;;;;;;5078759;28;20032;-67
2021/08/16 05:10:45;;;;;;;8.15;7.35;;;;;;;;;;5096750;28;20032;-67
2021/08/16 05:13:11;;;;;;;7.90;7.10;;;;;;;;;;5096586;28;20036;-67
2021/08/16 05:15:37;;;;;;;8.48;7.47;;;;;;;;;;5096570;28;20097;-67
2021/08/16 05:18:03;;;;;;;8.40;7.63;;;;;;;;;;5096342;28;20051;-67
2021/08/16 05:20:29;;;;;;;9.18;7.45;;;;;;;;;;5078393;28;20040;-67
2021/08/16 05:22:54;;;;;;;10.00;7.70;;;;;;;;;;5096358;28;20397;-67
2021/08/16 05:25:20;;;;;;;12.07;7.75;;;;;;;;;;5096396;28;20028;-67
2021/08/16 05:27:47;;;;;;;8.88;7.97;;;;;;;;;;5096449;28;20035;-67
2021/08/16 05:30:13;;;;;;;11.70;7.95;;;;;;;;;;5078317;28;20028;-67
2021/08/16 05:32:39;;;;;;;9.20;7.97;;;;;;;;;;5078365;28;20377;-66
2021/08/16 05:35:05;;;;;;;8.98;8.10;;;;;;;;;;5096322;28;20039;-66
2021/08/16 05:37:31;;;;;;;11.00;8.48;;;;;;;;;;5096123;28;20082;-66
2021/08/16 05:39:56;;;;;;;9.93;8.43;;;;;;;;;;5096067;28;20020;-66
2021/08/16 05:42:21;;;;;;;9.90;8.15;;;;;;;;;;5096351;28;20033;-64
2021/08/16 05:44:47;;;;;;;11.73;8.63;;;;;;;;;;5078026;28;20034;-65
2021/08/16 05:47:12;;;;;;;9.70;8.45;;;;;;;;;;5096256;28;20130;-65
2021/08/16 05:49:38;;;;;;;8.88;8.05;;;;;;;;;;5096000;28;20020;-65
2021/08/16 05:52:04;;;;;;;9.40;7.97;;;;;;;;;;5094552;28;20040;-64
2021/08/16 05:54:29;;;;;;;9.55;8.20;;;;;;;;;;5095776;28;20028;-65
2021/08/16 05:56:55;;;;;;;9.38;8.45;;;;;;;;;;5095855;28;20034;-66
2021/08/16 05:59:20;;;;;;;11.07;8.60;;;;;;;;;;5095718;28;20359;-65
2021/08/16 06:01:46;;;;;;;9.18;8.27;;;;;;;;;;5096201;28;20043;-65
2021/08/16 06:04:11;;;;;;;10.85;8.70;;;;;;;;;;5095702;28;20047;-65
2021/08/16 06:06:37;;;;;;;8.88;7.97;;;;;;;;;;5095463;28;20543;-64
2021/08/16 06:09:03;;;;;;;11.57;9.30;;;;;;;;;;5095307;28;20035;-63
2021/08/16 06:11:28;;;;;;;12.52;8.57;;;;;;;;;;5095497;28;20032;-63
2021/08/16 06:13:54;;;;;;;9.50;8.57;;;;;;;;;;5095491;28;20102;-63
2021/08/16 06:16:20;;;;;;;9.00;8.10;;;;;;;;;;5094841;28;20048;-63
2021/08/16 06:18:45;;;;;;;9.77;8.88;;;;;;;;;;5095674;28;20044;-63
2021/08/16 06:21:11;;;;;;;9.90;8.43;;;;;;;;;;5095299;28;20028;-63
2021/08/16 06:23:36;;;;;;;9.23;7.78;;;;;;;;;;5095093;28;20122;-63
2021/08/16 06:26:02;;;;;;;11.07;8.52;;;;;;;;;;5077182;28;20090;-63
2021/08/16 06:28:28;;;;;;;9.77;7.93;;;;;;;;;;5095016;28;20028;-63
2021/08/16 06:30:54;;;;;;;9.73;8.02;;;;;;;;;;5077007;28;20024;-63
2021/08/16 06:33:19;;;;;;;11.00;7.75;;;;;;;;;;5095293;28;20032;-63
2021/08/16 06:35:46;;;;;;;9.05;7.25;;;;;;;;;;5095382;28;20513;-63
2021/08/16 06:38:32;;;;;;;9.88;8.00;;;;;;;;;;5076946;28;20039;-63
2021/08/16 06:40:57;;;;;;;9.73;8.20;;;;;;;;;;5094528;28;20048;-63
2021/08/16 06:43:25;;;;;;;10.52;7.57;;;;;;;;;;5076435;28;20043;-63
2021/08/16 06:45:50;;;;;;;9.38;7.47;;;;;;;;;;5094965;28;20059;-63
2021/08/16 06:48:16;;;;;;;11.55;7.93;;;;;;;;;;5094811;28;20044;-63
2021/08/16 06:50:42;;;;;;;10.02;7.95;;;;;;;;;;5094438;28;20032;-63
2021/08/16 06:53:07;;;;;;;12.25;9.13;;;;;;;;;;5094657;28;20028;-63
2021/08/16 06:55:33;;;;;;;10.65;7.57;;;;;;;;;;5094273;28;20040;-63
2021/08/16 06:57:58;;;;;;;10.90;8.05;;;;;;;;;;5094641;28;20028;-63
2021/08/16 07:00:24;;;;;;;9.00;8.10;;;;;;;;;;5094702;28;20043;-63
2021/08/16 07:02:50;;;;;;;10.40;8.15;;;;;;;;;;5094115;28;20027;-63
2021/08/16 07:05:15;;;;;;;9.90;8.00;;;;;;;;;;5094455;28;20036;-63
2021/08/16 07:07:41;;;;;;;9.48;7.60;;;;;;;;;;5076104;28;20028;-63
2021/08/16 07:10:06;;;;;;;8.52;7.25;;;;;;;;;;5094265;28;20089;-63
2021/08/16 07:12:32;;;;;;;11.32;7.82;;;;;;;;;;5094582;28;20409;-63
2021/08/16 07:14:58;;;;;;;9.65;7.72;;;;;;;;;;5094578;28;20063;-63
2021/08/16 07:17:23;;;;;;;8.23;7.30;;;;;;;;;;5093718;28;20113;-63
2021/08/16 07:19:49;;;;;;;8.63;7.50;;;;;;;;;;5094038;28;20044;-63
2021/08/16 07:22:16;;;;;;;8.88;7.97;;;;;;;;;;5094069;28;20043;-65
2021/08/16 07:24:41;;;;;;;10.02;8.07;;;;;;;;;;5094359;28;20032;-65
2021/08/16 07:27:07;;;;;;;11.70;8.23;;;;;;;;;;5094250;28;20331;-65
2021/08/16 07:29:32;;;;;;;12.35;8.02;;;;;;;;;;5094050;28;20044;-66
2021/08/16 07:31:58;;;;;;;11.10;8.80;;;;;;;;;;5076146;28;20029;-66
2021/08/16 07:34:23;;;;;;;11.80;8.32;;;;;;;;;;5094222;28;20082;-66
2021/08/16 07:36:50;;;;;;;11.25;8.88;;;;;;;;;;5094093;28;20421;-66
2021/08/16 07:39:16;;;;;;;8.75;6.25;;;;;;;;;;5076233;28;20044;-66
2021/08/16 07:41:43;;;;;;;9.52;7.32;;;;;;;;;;5075970;28;20074;-66
2021/08/16 07:44:08;;;;;;;7.93;6.40;;;;;;;;;;5094067;28;20474;-67
2021/08/16 07:46:34;;;;;;;9.40;6.78;;;;;;;;;;5075831;28;20486;-68
2021/08/16 07:48:59;;;;;;;6.88;6.18;;;;;;;;;;5103684;28;20023;-63
2021/08/16 07:51:25;;;;;;;9.88;6.05;;;;;;;;;;5114071;28;20508;-64
2021/08/16 07:53:51;;;;;;;9.63;6.97;;;;;;;;;;5114224;28;20036;-64
2021/08/16 07:56:17;;;;;;;10.10;6.85;;;;;;;;;;5114064;28;20044;-63
2021/08/16 07:58:42;;;;;;;11.32;6.82;;;;;;;;;;5095765;28;20051;-63
2021/08/16 08:01:09;;;;;;;7.45;6.18;;;;;;;;;;5095665;28;20032;-63
2021/08/16 08:03:34;;;;;;;8.32;6.38;;;;;;;;;;5114251;28;20069;-63
2021/08/16 08:06:00;;;;;;;7.00;6.20;;;;;;;;;;5113714;28;20117;-63
2021/08/16 08:08:25;;;;;;;6.28;5.00;;;;;;;;;;5113904;28;20471;-63
2021/08/16 08:10:51;;;;;;;6.15;5.28;;;;;;;;;;5095716;28;20035;-64
2021/08/16 08:13:16;;;;;;;7.70;5.00;;;;;;;;;;5113433;28;20030;-63
2021/08/16 08:15:43;;;;;;;5.65;5.00;;;;;;;;;;5094917;28;20101;-63
2021/08/16 08:18:10;;;;;;;6.70;5.55;;;;;;;;;;5095221;28;20504;-63
2021/08/16 08:20:36;;;;;;;6.18;4.53;;;;;;;;;;5113564;28;20079;-63
2021/08/16 08:23:02;;;;;;;5.50;4.80;;;;;;;;;;5113700;28;20064;-63
2021/08/16 08:25:28;;;;;;;5.10;4.65;;;;;;;;;;5114106;28;20046;-64
2021/08/16 08:27:53;;;;;;;4.65;4.18;;;;;;;;;;5113619;28;20032;-63
2021/08/16 08:30:19;;;;;;;5.43;4.55;;;;;;;;;;5113711;28;20104;-63
2021/08/16 08:32:48;;;;;;;8.93;5.30;;;;;;;;;;5113465;28;20100;-63
2021/08/16 08:35:14;;;;;;;5.30;4.80;;;;;;;;;;5095324;28;20481;-63
2021/08/16 08:37:39;;;;;;;6.20;4.72;;;;;;;;;;5113726;28;20036;-63
2021/08/16 08:40:05;;;;;;;5.72;4.53;;;;;;;;;;5113680;28;20028;-63
2021/08/16 08:42:31;;;;;;;5.40;4.70;;;;;;;;;;5113621;28;20038;-63
2021/08/16 08:44:57;;;;;;;6.32;4.57;;;;;;;;;;5095338;28;20028;-63
2021/08/16 08:47:22;;;;;;;4.75;4.43;;;;;;;;;;5095534;28;20085;-63
2021/08/16 08:49:48;;;;;;;5.65;4.32;;;;;;;;;;5113532;28;20487;-63
2021/08/16 08:52:14;;;;;;;4.78;4.18;;;;;;;;;;5095294;28;20055;-63
2021/08/16 08:54:39;;;;;;;6.95;4.07;;;;;;;;;;5113324;28;20023;-63
2021/08/16 08:57:08;;;;;;;5.68;4.47;;;;;;;;;;5113252;28;20390;-63
2021/08/16 08:59:33;;;;;;;5.47;4.65;;;;;;;;;;5113243;28;20050;-63
2021/08/16 09:01:59;;;;;;;8.23;4.25;;;;;;;;;;5113366;28;20024;-63
2021/08/16 09:04:25;;;;;;;6.30;4.32;;;;;;;;;;5113273;28;20101;-63
2021/08/16 09:06:50;;;;;;;7.00;4.30;;;;;;;;;;5113256;28;20075;-63
2021/08/16 09:09:16;;;;;;;6.38;4.38;;;;;;;;;;5113404;28;20032;-63
2021/08/16 09:11:52;;;;;;;4.47;4.13;;;;;;;;;;5113660;28;20416;-63
2021/08/16 09:14:18;;;;;;;7.38;4.47;;;;;;;;;;5113236;28;20047;-63
2021/08/16 09:16:46;;;;;;;8.52;4.05;;;;;;;;;;5094321;28;20047;-63
2021/08/16 09:19:11;;;;;;;5.15;3.92;;;;;;;;;;5113262;28;20050;-63
2021/08/16 09:21:39;;;;;;;6.22;4.63;;;;;;;;;;5094970;28;20027;-63
2021/08/16 09:24:05;;;;;;;6.03;4.13;;;;;;;;;;5113492;28;20036;-63
2021/08/16 09:26:31;;;;;;;5.40;4.43;;;;;;;;;;5115655;28;20028;-63
2021/08/16 09:29:07;;;;;;;6.30;4.53;;;;;;;;;;5098903;28;20401;-63
2021/08/16 09:31:33;;;;;;;6.38;4.65;;;;;;;;;;5098884;28;20047;-63
2021/08/16 09:34:02;;;;;;;5.18;4.47;;;;;;;;;;5099006;28;20011;-64
2021/08/16 09:36:38;;;;;;;8.18;4.20;;;;;;;;;;5116906;28;20035;-63
2021/08/16 09:39:16;;;;;;;8.70;4.85;;;;;;;;;;5098362;28;20104;-63
2021/08/16 09:41:41;;;;;;;6.50;4.68;;;;;;;;;;5116763;28;20035;-63
2021/08/16 09:44:09;;;;;;;7.13;4.53;;;;;;;;;;5116739;28;20039;-63
2021/08/16 09:46:35;;;;;;;8.52;5.10;;;;;;;;;;5116466;28;20127;-64
2021/08/16 09:49:04;;;;;;;5.03;4.47;;;;;;;;;;5116624;28;20035;-63
2021/08/16 09:51:30;;;;;;;4.90;4.30;;;;;;;;;;5098463;28;20042;-64
2021/08/16 09:53:57;;;;;;;5.45;4.20;;;;;;;;;;5098279;28;20031;-64
2021/08/16 09:56:23;;;;;;;4.95;4.53;;;;;;;;;;5116518;28;20122;-64
2021/08/16 09:58:49;;;;;;;5.15;4.32;;;;;;;;;;5115868;28;20111;-64
2021/08/16 10:01:15;;;;;;;6.78;4.00;;;;;;;;;;5097899;28;20108;-64
2021/08/16 10:03:40;;;;;;;7.20;4.78;;;;;;;;;;5116018;28;20027;-64
2021/08/16 10:06:06;;;;;;;4.78;4.20;;;;;;;;;;5097659;28;20070;-64
2021/08/16 10:08:34;;;;;;;5.90;4.18;;;;;;;;;;5116030;28;20027;-64
2021/08/16 10:11:00;;;;;;;7.80;4.40;;;;;;;;;;5116144;28;20100;-64
2021/08/16 10:13:26;;;;;;;4.22;3.88;;;;;;;;;;5115921;28;20029;-64
2021/08/16 10:15:57;;;;;;;6.45;4.20;;;;;;;;;;5115782;28;20032;-64
2021/08/16 10:18:24;;;;;;;6.65;3.47;;;;;;;;;;5115420;28;20038;-64
2021/08/16 10:20:49;;;;;;;5.40;4.50;;;;;;;;;;5116002;28;20074;-64
2021/08/16 10:23:16;;;;;;;5.97;4.40;;;;;;;;;;5115636;28;20067;-63
2021/08/16 10:25:46;;;;;;;5.75;4.35;;;;;;;;;;5115914;28;20069;-63
2021/08/16 10:28:28;;;;;;;6.78;3.60;;;;;;;;;;5115733;28;20466;-63
2021/08/16 10:30:58;;;;;;;3.88;3.58;;;;;;;;;;5115528;28;20035;-63
2021/08/16 10:33:24;;;;;;;4.63;3.97;;;;;;;;;;5115969;28;20447;-64
2021/08/16 10:35:50;;;;;;;3.90;3.60;;;;;;;;;;5115617;28;20027;-63
2021/08/16 10:38:16;;;;;;;3.55;3.25;;;;;;;;;;5114753;28;20027;-63
2021/08/16 10:40:43;;;;;;;4.75;3.53;;;;;;;;;;5096893;28;20028;-63
2021/08/16 10:43:09;;;;;;;5.07;3.58;;;;;;;;;;5115307;28;20039;-65
2021/08/16 10:45:42;;;;;;;8.68;3.78;;;;;;;;;;5115287;28;20152;-66
2021/08/16 10:48:08;;;;;;;3.28;2.97;;;;;;;;;;5115171;28;20031;-65
2021/08/16 10:50:35;;;;;;;5.15;3.30;;;;;;;;;;5115096;28;20051;-65
2021/08/16 10:53:08;;;;;;;3.90;3.60;;;;;;;;;;5115136;28;20031;-65
2021/08/16 10:55:43;;;;;;;5.88;3.15;;;;;;;;;;5096968;28;20039;-70
2021/08/16 10:58:09;;;;;;;6.80;3.42;;;;;;;;;;5115049;28;20036;-70
2021/08/16 11:00:36;;;;;;;3.90;3.40;;;;;;;;;;5096933;28;20023;-70
2021/08/16 11:03:01;;;;;;;4.28;3.28;;;;;;;;;;5096562;28;20032;-70
2021/08/16 11:05:44;;;;;;;4.97;2.97;;;;;;;;;;5114876;28;20435;-70
2021/08/16 11:08:10;;;;;;;6.68;3.08;;;;;;;;;;5096755;28;20126;-71
2021/08/16 11:10:43;;;;;;;5.68;3.40;;;;;;;;;;5114795;28;20070;-70
2021/08/16 11:13:13;;;;;;;6.82;3.63;;;;;;;;;;5114642;28;20065;-66
2021/08/16 11:15:39;;;;;;;3.83;2.97;;;;;;;;;;5114707;28;20036;-65
2021/08/16 11:18:10;;;;;;;3.75;3.17;;;;;;;;;;5114330;28;20088;-65
2021/08/16 11:20:36;;;;;;;5.20;3.00;;;;;;;;;;5114629;28;20100;-65
2021/08/16 11:23:01;;;;;;;3.47;3.13;;;;;;;;;;5096408;28;20478;-65
2021/08/16 11:25:27;;;;;;;5.53;3.15;;;;;;;;;;5114692;28;20070;-66
2021/08/16 11:27:58;;;;;;;5.97;3.22;;;;;;;;;;5114603;28;20028;-65
2021/08/16 11:30:24;;;;;;;3.97;2.92;;;;;;;;;;5096680;28;20134;-66
2021/08/16 11:32:52;;;;;;;3.42;2.92;;;;;;;;;;5114568;28;20118;-66
2021/08/16 11:35:18;;;;;;;3.35;2.80;;;;;;;;;;5114934;28;20122;-66
2021/08/16 11:37:48;;;;;;;5.43;3.05;;;;;;;;;;5114717;28;20066;-66
2021/08/16 11:40:14;;;;;;;3.95;2.92;;;;;;;;;;5114141;28;20043;-65
2021/08/16 11:42:40;;;;;;;7.60;2.85;;;;;;;;;;5114073;28;20020;-65
2021/08/16 11:45:08;;;;;;;5.82;3.08;;;;;;;;;;5095899;28;20177;-66
2021/08/16 11:47:38;;;;;;;6.03;2.67;;;;;;;;;;5096195;28;20056;-66
2021/08/16 11:50:05;;;;;;;3.80;2.90;;;;;;;;;;5114053;28;20067;-65
2021/08/16 11:52:30;;;;;;;3.65;2.70;;;;;;;;;;5114256;28;20028;-66
2021/08/16 11:54:56;;;;;;;3.63;2.85;;;;;;;;;;5114056;28;20038;-65
2021/08/16 11:57:23;;;;;;;3.15;2.83;;;;;;;;;;5114052;28;20495;-66
2021/08/16 11:59:52;;;;;;;4.13;2.63;;;;;;;;;;5114063;28;20120;-66
2021/08/16 12:02:18;;;;;;;3.92;3.08;;;;;;;;;;5114006;28;20074;-66
2021/08/16 12:04:45;;;;;;;4.80;2.90;;;;;;;;;;5114144;28;20044;-65
2021/08/16 12:07:10;;;;;;;3.65;2.72;;;;;;;;;;5113539;28;20104;-68
2021/08/16 12:09:36;;;;;;;3.95;2.90;;;;;;;;;;5113953;28;20477;-66
2021/08/16 12:12:04;;;;;;;3.40;2.67;;;;;;;;;;5113613;28;20489;-66
2021/08/16 12:14:31;;;;;;;3.05;2.85;;;;;;;;;;5113827;28;20036;-66
2021/08/16 12:16:57;;;;;;;3.45;3.20;;;;;;;;;;5112640;28;20101;-68
2021/08/16 12:19:23;;;;;;;4.80;3.10;;;;;;;;;;5113485;28;20036;-66
2021/08/16 12:22:01;;;;;;;5.35;2.97;;;;;;;;;;5095833;28;20047;-66
2021/08/16 12:24:27;;;;;;;4.50;3.28;;;;;;;;;;5113631;28;20432;-66
2021/08/16 12:27:02;;;;;;;3.17;2.85;;;;;;;;;;5113661;28;20049;-66
2021/08/16 12:29:28;;;;;;;4.80;3.00;;;;;;;;;;5113602;28;20047;-66
2021/08/16 12:31:54;;;;;;;4.18;3.05;;;;;;;;;;5113647;28;20047;-66
2021/08/16 12:34:20;;;;;;;4.20;2.70;;;;;;;;;;5113432;28;20556;-66
2021/08/16 12:36:54;;;;;;;5.07;3.17;;;;;;;;;;5095732;28;20236;-66
2021/08/16 12:39:19;;;;;;;7.05;3.03;;;;;;;;;;5113366;28;20058;-65
2021/08/16 12:41:45;;;;;;;6.88;3.15;;;;;;;;;;5113509;28;20454;-65
2021/08/16 12:44:18;;;;;;;3.30;3.10;;;;;;;;;;5113608;28;20393;-66
2021/08/16 12:46:43;;;;;;;4.57;2.90;;;;;;;;;;5113711;28;20481;-71
2021/08/16 12:49:18;;;;;;;4.43;3.15;;;;;;;;;;5113616;28;20030;-71
2021/08/16 12:51:43;;;;;;;2.70;2.45;;;;;;;;;;5113631;28;20408;-71
2021/08/16 12:54:09;;;;;;;3.83;3.13;;;;;;;;;;5095267;28;20111;-71
2021/08/16 12:56:35;;;;;;;4.97;3.30;;;;;;;;;;5113513;28;20063;-71
2021/08/16 12:59:00;;;;;;;3.38;3.00;;;;;;;;;;5113528;28;20054;-71
2021/08/16 13:01:26;;;;;;;6.47;3.30;;;;;;;;;;5116141;28;20036;-72
2021/08/16 13:03:52;;;;;;;3.50;2.90;;;;;;;;;;5116918;28;20028;-65
2021/08/16 13:06:17;;;;;;;3.25;2.95;;;;;;;;;;5117214;28;20048;-66
2021/08/16 13:08:43;;;;;;;3.90;3.00;;;;;;;;;;5117466;28;20028;-71
2021/08/16 13:11:11;;;;;;;6.25;3.17;;;;;;;;;;5098754;28;20462;-72
2021/08/16 13:13:36;;;;;;;4.72;3.22;;;;;;;;;;5098653;28;20028;-71
2021/08/16 13:16:02;;;;;;;5.85;3.13;;;;;;;;;;5116651;28;20409;-71
2021/08/16 13:18:27;;;;;;;4.25;3.58;;;;;;;;;;5117129;28;20126;-71
2021/08/16 13:20:55;;;;;;;6.03;3.13;;;;;;;;;;5116731;28;20130;-71
2021/08/16 13:23:20;;;;;;;4.78;2.78;;;;;;;;;;5117001;28;20024;-71
2021/08/16 13:25:46;;;;;;;8.38;3.30;;;;;;;;;;5116870;28;20030;-65
2021/08/16 13:28:11;;;;;;;4.80;3.17;;;;;;;;;;5098800;28;20123;-66
2021/08/16 13:30:37;;;;;;;3.75;3.22;;;;;;;;;;5116602;28;20023;-71
2021/08/16 13:33:03;;;;;;;6.43;3.53;;;;;;;;;;5116567;28;20027;-71
2021/08/16 13:35:28;;;;;;;3.85;3.38;;;;;;;;;;5116341;28;20397;-71
2021/08/16 13:37:54;;;;;;;5.35;3.60;;;;;;;;;;5116510;28;20043;-71
2021/08/16 13:40:19;;;;;;;5.80;3.63;;;;;;;;;;5116786;28;20041;-71
2021/08/16 13:42:45;;;;;;;4.95;3.47;;;;;;;;;;5098616;28;20032;-71
2021/08/16 13:45:10;;;;;;;3.80;3.50;;;;;;;;;;5098192;28;20077;-71
2021/08/16 13:47:36;;;;;;;4.50;3.78;;;;;;;;;;5098333;28;20035;-71
2021/08/16 13:50:01;;;;;;;5.63;3.65;;;;;;;;;;5116184;28;20027;-71
2021/08/16 13:52:27;;;;;;;5.68;3.35;;;;;;;;;;5116440;28;20382;-66
2021/08/16 13:54:53;;;;;;;5.32;3.38;;;;;;;;;;5116330;28;20046;-66
2021/08/16 13:57:18;;;;;;;3.75;3.22;;;;;;;;;;5116314;28;20040;-67
2021/08/16 13:59:44;;;;;;;5.00;3.63;;;;;;;;;;5116335;28;20032;-63
2021/08/16 14:02:09;;;;;;;6.88;3.40;;;;;;;;;;5116142;28;20047;-63
2021/08/16 14:04:35;;;;;;;3.78;3.25;;;;;;;;;;5098041;28;20024;-63
2021/08/16 14:07:01;;;;;;;3.63;3.28;;;;;;;;;;5097920;28;20069;-63
2021/08/16 14:09:27;;;;;;;3.25;2.90;;;;;;;;;;5116211;28;20411;-63
2021/08/16 14:11:53;;;;;;;5.60;3.40;;;;;;;;;;5115260;28;20118;-63
2021/08/16 14:14:18;;;;;;;3.97;3.50;;;;;;;;;;5115829;28;20489;-63
2021/08/16 14:16:44;;;;;;;6.22;3.75;;;;;;;;;;5115147;28;20035;-63
2021/08/16 14:19:09;;;;;;;3.90;3.63;;;;;;;;;;5116437;28;20039;-63
2021/08/16 14:21:36;;;;;;;3.72;3.38;;;;;;;;;;5116012;28;20035;-63
2021/08/16 14:24:01;;;;;;;5.20;3.85;;;;;;;;;;5097533;28;20020;-63
2021/08/16 14:26:27;;;;;;;3.97;3.35;;;;;;;;;;5115487;28;20027;-63
2021/08/16 14:28:52;;;;;;;8.98;3.80;;;;;;;;;;5115755;28;20458;-63
2021/08/16 14:31:18;;;;;;;5.90;3.38;;;;;;;;;;5097551;28;20074;-71
2021/08/16 14:33:43;;;;;;;4.15;3.70;;;;;;;;;;5097374;28;20031;-71
2021/08/16 14:36:09;;;;;;;8.43;3.70;;;;;;;;;;5097485;28;20078;-71